createdAt,value
2023-01-18T00:01:22.339Z,100.00
2023-01-18T00:03:51.203Z,100.00
2023-01-18T00:06:19.517Z,100.00
2023-01-18T00:08:47.826Z,100.00
2023-01-18T00:11:18.541Z,100.00
2023-01-18T00:13:48.029Z,100.00
2023-01-18T00:16:19.476Z,100.00
2023-01-18T00:18:56.233Z,100.00
2023-01-18T00:21:26.519Z,100.00
2023-01-18T00:23:56.452Z,99.60
2023-01-18T00:26:24.627Z,98.90
2023-01-18T00:28:55.742Z,98.54
2023-01-18T00:31:24.214Z,98.26
2023-01-18T00:33:52.618Z,98.33
2023-01-18T00:36:21.613Z,97.97
2023-01-18T00:38:54.220Z,97.55
2023-01-18T00:41:23.082Z,97.38
2023-01-18T00:43:52.388Z,97.30
2023-01-18T00:46:27.448Z,96.83
2023-01-18T00:48:57.451Z,96.67
2023-01-18T00:51:26.071Z,96.33
2023-01-18T00:53:54.232Z,95.73
2023-01-18T00:56:23.409Z,95.07
2023-01-18T00:58:51.581Z,94.63
2023-01-18T01:01:20.566Z,94.00
2023-01-18T01:04:07.567Z,93.77
2023-01-18T01:06:46.636Z,93.36
2023-01-18T01:09:25.384Z,93.13
2023-01-18T01:12:13.019Z,92.74
2023-01-18T01:15:03.681Z,92.42
2023-01-18T01:17:52.446Z,92.53
2023-01-18T01:20:40.461Z,92.37
2023-01-18T01:23:38.432Z,92.30
2023-01-18T01:26:08.798Z,92.31
2023-01-18T01:28:39.288Z,92.52
2023-01-18T01:31:10.292Z,92.66
2023-01-18T01:33:39.414Z,92.82
2023-01-18T01:36:13.834Z,93.13
2023-01-18T01:38:42.431Z,93.42
2023-01-18T01:41:20.672Z,93.46
2023-01-18T01:43:54.834Z,93.42
2023-01-18T01:46:41.725Z,93.79
2023-01-18T01:49:17.590Z,94.07
2023-01-18T01:51:58.223Z,94.54
2023-01-18T01:55:01.876Z,94.58
2023-01-18T01:58:02.845Z,94.78
2023-01-18T02:00:31.753Z,95.13
2023-01-18T02:03:06.371Z,95.40
2023-01-18T02:05:42.709Z,95.70
2023-01-18T02:08:13.773Z,95.92
2023-01-18T02:10:42.019Z,96.18
2023-01-18T02:13:11.371Z,96.53
2023-01-18T02:16:07.043Z,96.79
2023-01-18T02:18:50.713Z,96.69
2023-01-18T02:21:26.943Z,96.61
2023-01-18T02:24:01.404Z,96.47
2023-01-18T02:27:00.699Z,96.39
2023-01-18T02:29:41.141Z,96.17
2023-01-18T02:32:29.678Z,95.95
2023-01-18T02:35:11.180Z,95.85
2023-01-18T02:37:48.434Z,95.95
2023-01-18T02:40:39.918Z,95.96
2023-01-18T02:43:30.296Z,96.29
2023-01-18T02:46:18.780Z,96.48
2023-01-18T02:48:48.955Z,96.61
2023-01-18T02:51:17.349Z,96.87
2023-01-18T02:53:47.779Z,97.38
2023-01-18T02:56:17.557Z,97.81
2023-01-18T02:58:51.322Z,97.91
2023-01-18T03:01:22.523Z,97.89
2023-01-18T03:03:55.264Z,98.07
2023-01-18T03:06:27.949Z,98.13
2023-01-18T03:08:58.596Z,98.28
2023-01-18T03:11:32.642Z,98.52
2023-01-18T03:14:29.323Z,98.79
2023-01-18T03:17:11.439Z,98.90
2023-01-18T03:19:58.413Z,98.91
2023-01-18T03:22:48.271Z,99.04
2023-01-18T03:25:20.658Z,98.97
2023-01-18T03:28:10.386Z,99.11
2023-01-18T03:30:59.757Z,99.22
2023-01-18T03:33:47.799Z,99.19
2023-01-18T03:36:41.564Z,99.35
2023-01-18T03:39:16.068Z,99.48
2023-01-18T03:41:49.134Z,99.43
2023-01-18T03:44:29.613Z,99.41
2023-01-18T03:46:58.076Z,99.60
2023-01-18T03:49:27.662Z,99.99
2023-01-18T03:52:29.683Z,100.00
2023-01-18T03:55:07.931Z,100.00
2023-01-18T03:57:43.756Z,100.00
2023-01-18T04:00:14.402Z,100.00
2023-01-18T04:02:47.442Z,100.00
2023-01-18T04:05:17.335Z,100.00
2023-01-18T04:07:45.642Z,100.00
2023-01-18T04:10:14.068Z,100.00
2023-01-18T04:12:43.473Z,100.00
2023-01-18T04:15:11.973Z,100.00
2023-01-18T04:17:41.400Z,100.00
2023-01-18T04:20:11.505Z,100.00
2023-01-18T04:22:45.767Z,100.00
2023-01-18T04:25:13.986Z,100.00
2023-01-18T04:27:42.303Z,100.00
2023-01-18T04:30:11.169Z,100.00
2023-01-18T04:32:40.227Z,100.00
2023-01-18T04:35:15.563Z,100.00
2023-01-18T04:37:43.992Z,100.00
2023-01-18T04:40:13.050Z,100.00
2023-01-18T04:42:41.279Z,100.00
2023-01-18T04:45:14.263Z,100.00
2023-01-18T04:47:42.972Z,100.00
2023-01-18T04:50:12.260Z,100.00
2023-01-18T04:52:40.589Z,100.00
2023-01-18T04:55:15.648Z,100.00
2023-01-18T04:57:54.490Z,100.00
2023-01-18T05:00:24.355Z,100.00
2023-01-18T05:02:53.796Z,100.00
2023-01-18T05:05:22.482Z,100.00
2023-01-18T05:07:53.623Z,100.00
2023-01-18T05:10:21.786Z,100.00
2023-01-18T05:12:50.082Z,100.00
2023-01-18T05:15:18.489Z,100.00
2023-01-18T05:17:46.748Z,100.00
2023-01-18T05:20:19.716Z,100.00
2023-01-18T05:22:47.904Z,100.00
2023-01-18T05:25:16.308Z,100.00
2023-01-18T05:27:46.581Z,100.00
2023-01-18T05:30:21.158Z,100.00
2023-01-18T05:32:49.389Z,100.00
2023-01-18T05:35:17.723Z,100.00
2023-01-18T05:37:52.243Z,100.00
2023-01-18T05:40:22.321Z,100.00
2023-01-18T05:42:53.215Z,100.00
2023-01-18T05:45:21.429Z,100.00
2023-01-18T05:47:52.540Z,100.00
2023-01-18T05:50:20.775Z,100.00
2023-01-18T05:52:48.934Z,100.00
2023-01-18T05:55:18.477Z,100.00
2023-01-18T05:57:52.763Z,100.00
2023-01-18T06:00:21.332Z,100.00
2023-01-18T06:02:56.682Z,100.00
2023-01-18T06:05:25.659Z,100.00
2023-01-18T06:07:54.052Z,100.00
2023-01-18T06:10:22.250Z,100.00
2023-01-18T06:12:50.644Z,100.00
2023-01-18T06:15:18.934Z,100.00
2023-01-18T06:17:47.336Z,100.00
2023-01-18T06:20:16.046Z,100.00
2023-01-18T06:22:45.741Z,100.00
2023-01-18T06:25:14.197Z,100.00
2023-01-18T06:27:42.396Z,100.00
2023-01-18T06:30:11.182Z,100.00
2023-01-18T06:32:39.337Z,99.95
2023-01-18T06:35:08.114Z,99.30
2023-01-18T06:37:36.339Z,99.22
2023-01-18T06:40:05.460Z,97.90
2023-01-18T06:42:33.777Z,97.74
2023-01-18T06:45:01.923Z,98.17
2023-01-18T06:47:30.359Z,97.53
2023-01-18T06:49:58.639Z,96.79
2023-01-18T06:52:26.915Z,96.64
2023-01-18T06:54:55.175Z,96.58
2023-01-18T06:57:24.112Z,95.57
2023-01-18T06:59:53.572Z,95.27
2023-01-18T07:02:21.897Z,94.98
2023-01-18T07:04:50.559Z,94.60
2023-01-18T07:07:18.956Z,94.16
2023-01-18T07:09:47.167Z,93.12
2023-01-18T07:12:15.484Z,93.01
2023-01-18T07:14:43.789Z,92.63
2023-01-18T07:17:12.128Z,92.54
2023-01-18T07:19:40.463Z,91.41
2023-01-18T07:22:08.827Z,90.22
2023-01-18T07:24:37.016Z,88.14
2023-01-18T07:27:05.236Z,86.95
2023-01-18T07:29:33.490Z,86.30
2023-01-18T07:32:02.741Z,86.50
2023-01-18T07:34:31.094Z,87.30
2023-01-18T07:36:59.386Z,88.08
2023-01-18T07:39:27.643Z,88.02
2023-01-18T07:41:56.013Z,88.27
2023-01-18T07:44:24.653Z,88.00
2023-01-18T07:46:52.938Z,88.11
2023-01-18T07:49:21.181Z,87.45
2023-01-18T07:51:49.416Z,86.55
2023-01-18T07:54:19.257Z,86.79
2023-01-18T07:56:47.532Z,86.52
2023-01-18T07:59:16.117Z,86.17
2023-01-18T08:01:44.424Z,85.45
2023-01-18T08:04:12.684Z,84.44
2023-01-18T08:06:40.943Z,84.43
2023-01-18T08:09:09.204Z,84.04
2023-01-18T08:11:37.428Z,83.26
2023-01-18T08:14:05.671Z,81.67
2023-01-18T08:16:33.910Z,81.25
2023-01-18T08:19:02.167Z,81.08
2023-01-18T08:21:32.041Z,79.89
2023-01-18T08:24:00.328Z,80.17
2023-01-18T08:26:28.531Z,78.93
2023-01-18T08:28:57.884Z,77.59
2023-01-18T08:31:27.070Z,76.65
2023-01-18T08:33:55.498Z,76.91
2023-01-18T08:36:25.618Z,76.76
2023-01-18T08:38:57.274Z,75.05
2023-01-18T08:41:30.676Z,74.29
2023-01-18T08:43:59.726Z,74.78
2023-01-18T08:46:28.666Z,74.01
2023-01-18T08:48:59.557Z,75.18
2023-01-18T08:51:28.056Z,74.44
2023-01-18T08:53:57.417Z,74.08
2023-01-18T08:56:26.225Z,74.23
2023-01-18T08:58:56.117Z,74.39
2023-01-18T09:01:25.101Z,72.79
2023-01-18T09:03:55.373Z,72.34
2023-01-18T09:06:24.308Z,71.47
2023-01-18T09:08:53.266Z,71.24
2023-01-18T09:11:21.480Z,71.29
2023-01-18T09:14:00.711Z,70.67
2023-01-18T09:16:31.277Z,69.87
2023-01-18T09:19:00.019Z,70.41
2023-01-18T09:21:29.397Z,69.88
2023-01-18T09:23:59.765Z,69.67
2023-01-18T09:26:30.624Z,68.83
2023-01-18T09:28:59.077Z,68.73
2023-01-18T09:31:29.132Z,69.12
2023-01-18T09:34:09.563Z,69.08
2023-01-18T09:36:46.901Z,68.97
2023-01-18T09:39:15.270Z,69.12
2023-01-18T09:41:49.769Z,69.63
2023-01-18T09:44:24.243Z,69.60
2023-01-18T09:47:00.438Z,69.74
2023-01-18T09:49:38.189Z,69.56
2023-01-18T09:52:44.093Z,70.24
2023-01-18T09:55:52.367Z,69.97
2023-01-18T09:58:53.800Z,70.34
2023-01-18T10:01:30.200Z,69.81
2023-01-18T10:04:01.028Z,69.19
2023-01-18T10:06:37.216Z,69.17
2023-01-18T10:09:15.746Z,69.42
2023-01-18T10:11:50.963Z,69.45
2023-01-18T10:14:43.897Z,69.46
2023-01-18T10:17:18.263Z,69.76
2023-01-18T10:19:47.659Z,70.03
2023-01-18T10:22:34.550Z,70.01
2023-01-18T10:25:24.313Z,70.07
2023-01-18T10:28:33.516Z,69.87
2023-01-18T10:31:32.050Z,69.80
2023-01-18T10:34:02.932Z,69.40
2023-01-18T10:36:41.895Z,69.18
2023-01-18T10:39:36.397Z,68.72
2023-01-18T10:42:17.634Z,68.44
2023-01-18T10:44:45.857Z,68.37
2023-01-18T10:47:17.984Z,68.25
2023-01-18T10:49:49.204Z,67.97
2023-01-18T10:52:26.376Z,67.86
2023-01-18T10:55:01.807Z,67.54
2023-01-18T10:57:34.576Z,67.08
2023-01-18T11:00:12.618Z,66.82
2023-01-18T11:02:45.157Z,66.26
2023-01-18T11:05:27.564Z,65.45
2023-01-18T11:08:17.624Z,65.10
2023-01-18T11:10:46.043Z,64.88
2023-01-18T11:13:35.714Z,64.33
2023-01-18T11:16:08.775Z,64.34
2023-01-18T11:18:37.149Z,63.86
2023-01-18T11:21:11.272Z,63.37
2023-01-18T11:23:43.029Z,63.35
2023-01-18T11:26:19.264Z,63.16
2023-01-18T11:29:00.879Z,62.92
2023-01-18T11:31:49.733Z,62.58
2023-01-18T11:34:29.989Z,63.32
2023-01-18T11:37:00.808Z,63.59
2023-01-18T11:39:33.502Z,63.79
2023-01-18T11:42:26.820Z,63.97
2023-01-18T11:45:04.513Z,64.10
2023-01-18T11:48:03.785Z,64.19
2023-01-18T11:50:46.024Z,64.37
2023-01-18T11:53:57.247Z,64.31
2023-01-18T11:56:35.067Z,64.74
2023-01-18T11:59:12.506Z,64.75
2023-01-18T12:01:55.650Z,65.19
2023-01-18T12:04:45.655Z,65.70
2023-01-18T12:07:16.748Z,66.04
2023-01-18T12:09:54.176Z,66.43
2023-01-18T12:12:52.877Z,66.49
2023-01-18T12:16:01.591Z,66.77
2023-01-18T12:18:59.158Z,66.91
2023-01-18T12:21:50.114Z,66.52
2023-01-18T12:24:35.029Z,66.53
2023-01-18T12:27:33.001Z,66.47
2023-01-18T12:30:14.211Z,66.74
2023-01-18T12:33:22.639Z,66.96
2023-01-18T12:36:01.805Z,66.75
2023-01-18T12:38:33.009Z,66.77
2023-01-18T12:41:17.829Z,66.44
2023-01-18T12:44:07.620Z,66.28
2023-01-18T12:47:01.234Z,66.41
2023-01-18T12:49:34.554Z,66.55
2023-01-18T12:52:18.002Z,66.56
2023-01-18T12:55:02.053Z,66.45
2023-01-18T12:57:30.550Z,66.06
2023-01-18T13:00:19.156Z,65.81
2023-01-18T13:02:52.939Z,65.59
2023-01-18T13:05:37.141Z,65.39
2023-01-18T13:08:17.325Z,65.78
2023-01-18T13:10:47.026Z,66.05
2023-01-18T13:13:22.732Z,66.21
2023-01-18T13:15:59.164Z,66.66
2023-01-18T13:18:37.015Z,66.61
2023-01-18T13:21:32.524Z,66.76
2023-01-18T13:24:04.299Z,66.79
2023-01-18T13:26:34.746Z,66.73
2023-01-18T13:29:10.339Z,66.57
2023-01-18T13:31:38.810Z,66.24
2023-01-18T13:34:25.205Z,65.83
2023-01-18T13:37:02.487Z,65.29
2023-01-18T13:39:47.862Z,64.55
2023-01-18T13:42:22.308Z,64.10
2023-01-18T13:45:14.373Z,63.70
2023-01-18T13:47:50.078Z,63.35
2023-01-18T13:50:39.665Z,62.81
2023-01-18T13:53:18.006Z,61.77
2023-01-18T13:55:55.458Z,61.15
2023-01-18T13:58:31.603Z,60.90
2023-01-18T14:01:05.215Z,60.79
2023-01-18T14:03:33.527Z,60.77
2023-01-18T14:06:15.216Z,60.94
2023-01-18T14:08:52.950Z,60.89
2023-01-18T14:11:27.854Z,61.03
2023-01-18T14:13:59.504Z,61.20
2023-01-18T14:16:34.676Z,61.10
2023-01-18T14:19:19.877Z,61.54
2023-01-18T14:22:07.524Z,61.90
2023-01-18T14:24:45.250Z,62.14
2023-01-18T14:27:47.205Z,62.32
2023-01-18T14:30:34.568Z,62.28
2023-01-18T14:33:26.630Z,62.53
2023-01-18T14:36:01.189Z,62.80
2023-01-18T14:38:31.449Z,63.03
2023-01-18T14:41:08.259Z,63.45
